Louisville Standiford Field, Kentucky
Current Conditions -  °F | °C
As of 12:56 AM on Thursday 23 Oct 2014 (Local Time) from KSDF Reporting Station
Clear Clear  
Wind Chill: 43°   Ceiling: Unl
Heat Index: 47°   Visibility: 10mi
Dew Point: 40°   Wind: 8mph
Humidity: 77%   Direction: 130°SE
Pressure: 30.25"   Gusts: NA
Location:  38.18°N, 85.73°W
Report Text: KSDF 230456Z 13007KT 10SM CLR 08/04 A3025 RMK AO2 SLP244 T00830044 401670067
Loading
Personal Weather Stations






























Interactive Weather Map
Tropical Storm Tracking
New forecast layout! Learn more

10-Day Weather Forecast

Advertisements
Track Severe Weather on mobile